createdAt,value
2018-02-04T00:01:01.954Z,1013.76
2018-02-04T00:02:28.905Z,1013.76
2018-02-04T00:03:55.986Z,1013.80
2018-02-04T00:05:23.069Z,1013.79
2018-02-04T00:06:50.245Z,1013.79
2018-02-04T00:08:16.913Z,1013.79
2018-02-04T00:09:43.957Z,1013.80
2018-02-04T00:11:11.204Z,1013.84
2018-02-04T00:12:37.912Z,1013.84
2018-02-04T00:14:06.002Z,1013.87
2018-02-04T00:15:32.112Z,1013.91
2018-02-04T00:16:58.809Z,1013.89
2018-02-04T00:18:25.692Z,1013.89
2018-02-04T00:19:52.959Z,1013.92
2018-02-04T00:21:19.972Z,1013.97
2018-02-04T00:22:47.095Z,1013.97
2018-02-04T00:24:14.428Z,1014.00
2018-02-04T00:25:41.687Z,1013.99
2018-02-04T00:27:08.697Z,1013.97
2018-02-04T00:28:35.842Z,1013.98
2018-02-04T00:30:02.782Z,1014.01
2018-02-04T00:31:29.928Z,1014.03
2018-02-04T00:32:57.212Z,1014.03
2018-02-04T00:34:24.277Z,1014.05
2018-02-04T00:35:51.528Z,1014.06
2018-02-04T00:37:18.612Z,1014.07
2018-02-04T00:38:45.749Z,1014.14
2018-02-04T00:40:12.803Z,1014.20
2018-02-04T00:41:39.965Z,1014.21
2018-02-04T00:43:07.043Z,1014.23
2018-02-04T00:44:34.023Z,1014.27
2018-02-04T00:46:00.905Z,1014.30
2018-02-04T00:47:27.731Z,1014.33
2018-02-04T00:48:54.879Z,1014.38
2018-02-04T00:50:21.906Z,1014.43
2018-02-04T00:51:49.122Z,1014.45
2018-02-04T00:53:16.311Z,1014.44
2018-02-04T00:54:43.345Z,1014.45
2018-02-04T00:56:10.379Z,1014.47
2018-02-04T00:57:37.562Z,1014.46
2018-02-04T00:59:04.683Z,1014.49
2018-02-04T01:00:31.849Z,1014.51
2018-02-04T01:01:58.557Z,1014.52
2018-02-04T01:03:25.920Z,1014.57
2018-02-04T01:04:52.997Z,1014.58
2018-02-04T01:06:20.240Z,1014.62
2018-02-04T01:07:47.207Z,1014.63
2018-02-04T01:09:14.323Z,1014.67
2018-02-04T01:10:41.444Z,1014.71
2018-02-04T01:12:08.375Z,1014.74
2018-02-04T01:13:35.374Z,1014.76
2018-02-04T01:15:02.748Z,1014.77
2018-02-04T01:16:29.677Z,1014.79
2018-02-04T01:17:56.811Z,1014.82
2018-02-04T01:19:23.978Z,1014.83
2018-02-04T01:20:51.101Z,1014.83
2018-02-04T01:22:18.149Z,1014.88
2018-02-04T01:23:45.026Z,1014.88
2018-02-04T01:25:12.086Z,1014.91
2018-02-04T01:26:39.066Z,1014.94
2018-02-04T01:28:06.103Z,1014.97
2018-02-04T01:29:33.101Z,1015.00
2018-02-04T01:31:00.252Z,1014.99
2018-02-04T01:32:27.269Z,1015.01
2018-02-04T01:33:54.243Z,1015.05
2018-02-04T01:35:21.232Z,1015.04
2018-02-04T01:36:48.553Z,1015.06
2018-02-04T01:38:15.500Z,1015.08
2018-02-04T01:39:42.656Z,1015.10
2018-02-04T01:41:09.673Z,1015.14
2018-02-04T01:42:36.626Z,1015.13
2018-02-04T01:44:03.623Z,1015.12
2018-02-04T01:45:30.623Z,1015.14
2018-02-04T01:46:57.804Z,1015.16
2018-02-04T01:48:24.730Z,1015.19
2018-02-04T01:49:51.843Z,1015.22
2018-02-04T01:51:19.009Z,1015.24
2018-02-04T01:52:46.314Z,1015.24
2018-02-04T01:54:13.166Z,1015.26
2018-02-04T01:55:40.205Z,1015.28
2018-02-04T01:57:07.384Z,1015.25
2018-02-04T01:58:34.181Z,1015.26
2018-02-04T02:00:01.238Z,1015.25
2018-02-04T02:01:28.623Z,1015.25
2018-02-04T02:02:55.744Z,1015.26
2018-02-04T02:04:22.649Z,1015.31
2018-02-04T02:05:49.889Z,1015.32
2018-02-04T02:07:16.664Z,1015.34
2018-02-04T02:08:43.739Z,1015.38
2018-02-04T02:11:37.800Z,1015.42
2018-02-04T02:13:04.724Z,1015.46
2018-02-04T02:14:31.612Z,1015.47
2018-02-04T02:15:58.463Z,1015.49
2018-02-04T02:17:25.631Z,1015.51
2018-02-04T02:18:52.736Z,1015.50
2018-02-04T02:20:19.882Z,1015.49
2018-02-04T02:21:46.834Z,1015.52
2018-02-04T02:23:13.928Z,1015.54
2018-02-04T02:24:41.099Z,1015.56
2018-02-04T02:26:08.127Z,1015.58
2018-02-04T02:27:35.050Z,1015.63
2018-02-04T02:29:01.940Z,1015.61
2018-02-04T02:30:28.942Z,1015.59
2018-02-04T02:31:55.783Z,1015.60
2018-02-04T02:33:22.825Z,1015.61
2018-02-04T02:34:49.654Z,1015.67
2018-02-04T02:36:16.534Z,1015.68
2018-02-04T02:37:43.473Z,1015.74
2018-02-04T02:39:10.564Z,1015.78
2018-02-04T02:40:37.491Z,1015.81
2018-02-04T02:42:04.251Z,1015.84
2018-02-04T02:43:31.234Z,1015.87
2018-02-04T02:44:58.398Z,1015.88
2018-02-04T02:46:25.373Z,1015.90
2018-02-04T02:47:52.577Z,1015.93
2018-02-04T02:49:19.375Z,1015.97
2018-02-04T02:50:46.441Z,1016.01
2018-02-04T02:52:13.217Z,1016.02
2018-02-04T02:53:40.354Z,1016.04
2018-02-04T02:55:07.189Z,1016.08
2018-02-04T02:56:34.167Z,1016.09
2018-02-04T02:58:01.324Z,1016.13
2018-02-04T02:59:28.478Z,1016.14
2018-02-04T03:00:55.454Z,1016.15
2018-02-04T03:02:22.236Z,1016.14
2018-02-04T03:03:49.327Z,1016.18
2018-02-04T03:05:16.532Z,1016.18
2018-02-04T03:06:43.545Z,1016.20
2018-02-04T03:08:10.754Z,1016.24
2018-02-04T03:09:37.657Z,1016.28
2018-02-04T03:11:04.745Z,1016.29
2018-02-04T03:12:31.784Z,1016.29
2018-02-04T03:13:58.809Z,1016.28
2018-02-04T03:15:25.753Z,1016.31
2018-02-04T03:16:52.736Z,1016.31
2018-02-04T03:18:20.000Z,1016.35
2018-02-04T03:19:47.171Z,1016.38
2018-02-04T03:21:14.077Z,1016.40
2018-02-04T03:22:40.940Z,1016.46
2018-02-04T03:24:08.010Z,1016.51
2018-02-04T03:25:35.130Z,1016.52
2018-02-04T03:27:01.894Z,1016.54
2018-02-04T03:28:28.922Z,1016.58
2018-02-04T03:29:55.927Z,1016.60
2018-02-04T03:31:23.167Z,1016.62
2018-02-04T03:32:50.074Z,1016.66
2018-02-04T03:34:16.810Z,1016.68
2018-02-04T03:35:43.770Z,1016.70
2018-02-04T03:37:10.776Z,1016.73
2018-02-04T03:38:37.682Z,1016.75
2018-02-04T03:40:04.652Z,1016.76
2018-02-04T03:41:31.760Z,1016.80
2018-02-04T03:42:58.845Z,1016.85
2018-02-04T03:44:26.138Z,1016.84
2018-02-04T03:45:53.022Z,1016.88
2018-02-04T03:47:20.179Z,1016.90
2018-02-04T03:48:47.263Z,1016.93
2018-02-04T03:50:14.210Z,1016.94
2018-02-04T03:51:41.355Z,1016.97
2018-02-04T03:53:08.323Z,1016.98
2018-02-04T03:54:35.616Z,1017.01
2018-02-04T03:56:02.326Z,1017.08
2018-02-04T03:57:29.346Z,1017.11
2018-02-04T03:58:56.478Z,1017.14
2018-02-04T04:00:23.595Z,1017.12
2018-02-04T04:01:50.552Z,1017.16
2018-02-04T04:03:17.663Z,1017.18
2018-02-04T04:04:44.690Z,1017.22
2018-02-04T04:06:11.768Z,1017.26
2018-02-04T04:07:38.746Z,1017.28
2018-02-04T04:09:05.728Z,1017.28
2018-02-04T04:10:32.753Z,1017.30
2018-02-04T04:12:00.025Z,1017.31
2018-02-04T04:13:27.042Z,1017.30
2018-02-04T04:14:54.233Z,1017.28
2018-02-04T04:16:21.241Z,1017.31
2018-02-04T04:17:48.372Z,1017.33
2018-02-04T04:19:15.625Z,1017.38
2018-02-04T04:20:42.427Z,1017.36
2018-02-04T04:22:09.383Z,1017.39
2018-02-04T04:23:36.326Z,1017.40
2018-02-04T04:25:03.273Z,1017.38
2018-02-04T04:26:30.225Z,1017.42
2018-02-04T04:27:57.476Z,1017.47
2018-02-04T04:29:24.442Z,1017.51
2018-02-04T04:30:51.501Z,1017.53
2018-02-04T04:32:18.672Z,1017.55
2018-02-04T04:33:45.865Z,1017.57
2018-02-04T04:35:12.928Z,1017.60
2018-02-04T04:36:39.873Z,1017.63
2018-02-04T04:38:06.785Z,1017.67
2018-02-04T04:39:33.857Z,1017.65
2018-02-04T04:41:01.886Z,1017.67
2018-02-04T04:42:27.630Z,1017.72
2018-02-04T04:43:54.332Z,1017.78
2018-02-04T04:45:21.298Z,1017.81
2018-02-04T04:46:48.421Z,1017.84
2018-02-04T04:48:15.481Z,1017.85
2018-02-04T04:49:42.652Z,1017.88
2018-02-04T04:51:09.435Z,1017.89
2018-02-04T04:52:36.439Z,1017.92
2018-02-04T04:54:03.351Z,1017.95
2018-02-04T04:55:30.412Z,1017.97
2018-02-04T04:56:57.655Z,1018.02
2018-02-04T04:58:24.435Z,1018.08
2018-02-04T04:59:51.362Z,1018.08
2018-02-04T05:01:18.570Z,1018.07
2018-02-04T05:02:45.796Z,1018.07
2018-02-04T05:04:12.737Z,1018.06
2018-02-04T05:05:39.730Z,1018.11
2018-02-04T05:07:06.904Z,1018.15
2018-02-04T05:08:33.921Z,1018.14
2018-02-04T05:10:02.006Z,1018.19
2018-02-04T05:11:27.836Z,1018.22
2018-02-04T05:12:55.092Z,1018.26
2018-02-04T05:14:22.227Z,1018.31
2018-02-04T05:15:49.267Z,1018.35
2018-02-04T05:17:16.583Z,1018.38
2018-02-04T05:18:43.506Z,1018.38
2018-02-04T05:20:10.752Z,1018.43
2018-02-04T05:21:37.708Z,1018.47
2018-02-04T05:23:04.718Z,1018.57
2018-02-04T05:24:31.708Z,1018.59
2018-02-04T05:25:59.120Z,1018.58
2018-02-04T05:27:26.250Z,1018.63
2018-02-04T05:28:53.466Z,1018.69
2018-02-04T05:30:20.556Z,1018.72
2018-02-04T05:31:47.645Z,1018.75
2018-02-04T05:33:14.622Z,1018.76
2018-02-04T05:34:41.523Z,1018.77
2018-02-04T05:36:08.543Z,1018.83
2018-02-04T05:37:35.282Z,1018.88
2018-02-04T05:39:02.334Z,1018.92
2018-02-04T05:40:29.250Z,1018.96
2018-02-04T05:41:56.433Z,1019.00
2018-02-04T05:43:23.740Z,1019.05
2018-02-04T05:44:50.813Z,1019.09
2018-02-04T05:46:17.944Z,1019.09
2018-02-04T05:47:45.012Z,1019.11
2018-02-04T05:49:12.013Z,1019.15
2018-02-04T05:50:38.998Z,1019.17
2018-02-04T05:52:05.995Z,1019.21
2018-02-04T05:53:32.976Z,1019.25
2018-02-04T05:54:59.944Z,1019.27
2018-02-04T05:56:26.971Z,1019.29
2018-02-04T05:57:53.936Z,1019.30
2018-02-04T05:59:21.139Z,1019.31
2018-02-04T06:00:48.539Z,1019.30
2018-02-04T06:02:15.357Z,1019.30
2018-02-04T06:03:42.397Z,1019.34
2018-02-04T06:05:09.394Z,1019.35
2018-02-04T06:06:36.322Z,1019.36
2018-02-04T06:08:03.160Z,1019.36
2018-02-04T06:09:30.402Z,1019.40
2018-02-04T06:10:57.416Z,1019.42
2018-02-04T06:12:24.023Z,1019.41
2018-02-04T06:13:51.009Z,1019.43
2018-02-04T06:15:18.230Z,1019.47
2018-02-04T06:16:45.162Z,1019.48
2018-02-04T06:18:11.870Z,1019.51
2018-02-04T06:19:38.790Z,1019.54
2018-02-04T06:21:05.957Z,1019.57
2018-02-04T06:22:32.951Z,1019.60
2018-02-04T06:23:59.794Z,1019.65
2018-02-04T06:25:26.944Z,1019.69
2018-02-04T06:26:54.048Z,1019.71
2018-02-04T06:28:21.090Z,1019.75
2018-02-04T06:29:48.110Z,1019.79
2018-02-04T06:31:15.264Z,1019.83
2018-02-04T06:32:42.071Z,1019.84
2018-02-04T06:34:09.024Z,1019.87
2018-02-04T06:35:36.043Z,1019.90
2018-02-04T06:37:02.886Z,1019.96
2018-02-04T06:38:29.819Z,1020.01
2018-02-04T06:39:56.783Z,1020.03
2018-02-04T06:41:23.811Z,1020.04
2018-02-04T06:42:51.038Z,1020.08
2018-02-04T06:44:18.044Z,1020.10
2018-02-04T06:45:44.902Z,1020.12
2018-02-04T06:47:12.119Z,1020.14
2018-02-04T06:48:39.243Z,1020.17
2018-02-04T06:50:06.494Z,1020.17
2018-02-04T06:51:33.326Z,1020.18
2018-02-04T06:53:00.571Z,1020.21
2018-02-04T06:54:27.438Z,1020.22
2018-02-04T06:55:54.322Z,1020.20
2018-02-04T06:57:21.477Z,1020.20
2018-02-04T06:58:48.539Z,1020.19
2018-02-04T07:00:15.707Z,1020.19
2018-02-04T07:01:42.932Z,1020.17
2018-02-04T07:03:09.906Z,1020.18
2018-02-04T07:04:36.970Z,1020.20
2018-02-04T07:06:03.946Z,1020.19
2018-02-04T07:07:31.129Z,1020.21
2018-02-04T07:08:58.236Z,1020.24
2018-02-04T07:10:25.236Z,1020.25
2018-02-04T07:11:52.482Z,1020.29
2018-02-04T07:13:19.672Z,1020.31
2018-02-04T07:14:46.669Z,1020.32
2018-02-04T07:16:13.653Z,1020.32
2018-02-04T07:17:40.857Z,1020.33
2018-02-04T07:19:08.007Z,1020.35
2018-02-04T07:20:35.037Z,1020.39
2018-02-04T07:22:02.300Z,1020.40
2018-02-04T07:23:29.268Z,1020.43
2018-02-04T07:24:56.294Z,1020.47
2018-02-04T07:26:23.486Z,1020.48
2018-02-04T07:27:50.534Z,1020.53
2018-02-04T07:29:17.880Z,1020.54
2018-02-04T07:30:45.056Z,1020.58
2018-02-04T07:32:11.911Z,1020.60
2018-02-04T07:33:38.860Z,1020.62
2018-02-04T07:35:05.954Z,1020.62
2018-02-04T07:36:32.666Z,1020.67
2018-02-04T07:37:59.861Z,1020.67
2018-02-04T07:39:26.920Z,1020.70
2018-02-04T07:40:54.069Z,1020.71
2018-02-04T07:42:20.843Z,1020.75
2018-02-04T07:43:47.937Z,1020.76
2018-02-04T07:45:15.146Z,1020.78
2018-02-04T07:46:42.044Z,1020.73
2018-02-04T07:48:09.198Z,1020.79
2018-02-04T07:49:36.200Z,1020.83
2018-02-04T07:51:03.178Z,1020.87
2018-02-04T07:52:30.218Z,1020.91
2018-02-04T07:53:57.258Z,1020.90
2018-02-04T07:55:24.258Z,1020.89
2018-02-04T07:56:51.444Z,1020.89
2018-02-04T07:58:18.746Z,1020.90
2018-02-04T07:59:45.625Z,1020.92
2018-02-04T08:01:12.914Z,1020.93
2018-02-04T08:02:40.023Z,1020.97
2018-02-04T08:04:07.140Z,1021.00
2018-02-04T08:05:34.113Z,1021.04
2018-02-04T08:07:01.122Z,1021.05
2018-02-04T08:08:28.055Z,1021.10
2018-02-04T08:09:55.301Z,1021.13
2018-02-04T08:11:22.460Z,1021.14
2018-02-04T08:12:49.384Z,1021.14
2018-02-04T08:14:16.445Z,1021.15
2018-02-04T08:15:43.387Z,1021.17
2018-02-04T08:17:10.602Z,1021.21
2018-02-04T08:18:37.580Z,1021.20
2018-02-04T08:20:04.523Z,1021.22
2018-02-04T08:21:31.543Z,1021.24
2018-02-04T08:22:58.614Z,1021.26
2018-02-04T08:24:25.580Z,1021.29
2018-02-04T08:25:52.774Z,1021.29
2018-02-04T08:27:19.842Z,1021.36
2018-02-04T08:28:46.962Z,1021.40
2018-02-04T08:30:14.154Z,1021.42
2018-02-04T08:31:41.093Z,1021.42
2018-02-04T08:33:08.097Z,1021.41
2018-02-04T08:34:34.760Z,1021.41
2018-02-04T08:36:01.502Z,1021.37
2018-02-04T08:37:28.560Z,1021.38
2018-02-04T08:38:55.739Z,1021.39
2018-02-04T08:40:22.701Z,1021.39
2018-02-04T08:41:49.576Z,1021.40
2018-02-04T08:43:16.795Z,1021.46
2018-02-04T08:44:43.718Z,1021.44
2018-02-04T08:46:10.607Z,1021.43
2018-02-04T08:47:37.681Z,1021.46
2018-02-04T08:49:04.653Z,1021.47
2018-02-04T08:50:31.972Z,1021.46
2018-02-04T08:51:59.193Z,1021.47
2018-02-04T08:53:26.116Z,1021.52
2018-02-04T08:54:53.113Z,1021.59
2018-02-04T08:56:20.158Z,1021.65
2018-02-04T08:57:47.368Z,1021.69
2018-02-04T08:59:14.428Z,1021.73
2018-02-04T09:00:41.489Z,1021.76
2018-02-04T09:02:08.448Z,1021.79
2018-02-04T09:03:35.512Z,1021.84
2018-02-04T09:05:02.683Z,1021.89
2018-02-04T09:06:29.901Z,1021.91
2018-02-04T09:07:57.086Z,1021.96
2018-02-04T09:09:24.083Z,1022.00
2018-02-04T09:10:51.175Z,1022.05
2018-02-04T09:12:18.222Z,1022.05
2018-02-04T09:13:45.387Z,1022.08
2018-02-04T09:15:12.647Z,1022.11
2018-02-04T09:16:39.507Z,1022.12
2018-02-04T09:18:06.517Z,1022.17
2018-02-04T09:19:33.557Z,1022.13
2018-02-04T09:21:00.776Z,1022.14
2018-02-04T09:22:27.901Z,1022.17
2018-02-04T09:23:55.072Z,1022.20
2018-02-04T09:25:22.069Z,1022.21
2018-02-04T09:26:48.675Z,1022.22
2018-02-04T09:28:15.827Z,1022.22
2018-02-04T09:29:42.376Z,1022.24
2018-02-04T09:31:09.440Z,1022.25
2018-02-04T09:32:36.618Z,1022.23
2018-02-04T09:34:03.665Z,1022.27
2018-02-04T09:35:30.897Z,1022.31
2018-02-04T09:36:58.115Z,1022.34
2018-02-04T09:38:25.387Z,1022.35
2018-02-04T09:39:52.485Z,1022.36
2018-02-04T09:41:19.082Z,1022.39
2018-02-04T09:42:46.345Z,1022.47
2018-02-04T09:44:21.059Z,1022.51
2018-02-04T09:45:38.910Z,1022.50
2018-02-04T09:47:05.678Z,1022.53
2018-02-04T09:48:32.564Z,1022.56
2018-02-04T09:49:59.827Z,1022.59
2018-02-04T09:51:26.952Z,1022.63
2018-02-04T09:52:54.296Z,1022.67
2018-02-04T09:54:21.147Z,1022.69
2018-02-04T09:55:48.386Z,1022.70
2018-02-04T09:57:15.460Z,1022.72
2018-02-04T09:58:42.761Z,1022.74
2018-02-04T10:00:09.853Z,1022.77
2018-02-04T10:01:37.610Z,1022.79
2018-02-04T10:03:03.840Z,1022.80
2018-02-04T10:04:30.803Z,1022.82
2018-02-04T10:05:57.930Z,1022.82
2018-02-04T10:07:24.996Z,1022.84
2018-02-04T10:08:52.160Z,1022.86
2018-02-04T10:10:19.452Z,1022.89
2018-02-04T10:11:46.384Z,1022.86
2018-02-04T10:13:13.548Z,1022.87
2018-02-04T10:14:40.858Z,1022.87
2018-02-04T10:16:08.035Z,1022.87
2018-02-04T10:17:35.037Z,1022.89
2018-02-04T10:19:02.209Z,1022.89
2018-02-04T10:20:29.478Z,1022.93
2018-02-04T10:21:56.406Z,1022.89
2018-02-04T10:23:23.533Z,1022.91
2018-02-04T10:24:50.715Z,1022.90
2018-02-04T10:26:17.960Z,1022.90
2018-02-04T10:27:45.241Z,1022.89
2018-02-04T10:29:12.258Z,1022.92
2018-02-04T10:30:39.325Z,1022.98
2018-02-04T10:32:06.152Z,1022.99
2018-02-04T10:33:33.100Z,1023.00
2018-02-04T10:35:00.165Z,1023.04
2018-02-04T10:36:27.403Z,1023.10
2018-02-04T10:37:54.534Z,1023.11
2018-02-04T10:39:21.848Z,1023.13
2018-02-04T10:40:49.104Z,1023.18
2018-02-04T10:42:16.365Z,1023.18
2018-02-04T10:43:43.575Z,1023.20
2018-02-04T10:45:10.766Z,1023.19
2018-02-04T10:46:37.856Z,1023.21
2018-02-04T10:48:04.660Z,1023.20
2018-02-04T10:49:31.806Z,1023.23
2018-02-04T10:50:58.945Z,1023.25
2018-02-04T10:52:26.122Z,1023.24
2018-02-04T10:53:53.443Z,1023.26
2018-02-04T10:55:20.607Z,1023.27
2018-02-04T10:56:47.560Z,1023.29
2018-02-04T10:58:14.806Z,1023.31
2018-02-04T10:59:41.880Z,1023.36
2018-02-04T11:01:08.924Z,1023.35
2018-02-04T11:02:35.996Z,1023.36
2018-02-04T11:04:03.001Z,1023.40
2018-02-04T11:05:30.263Z,1023.44
2018-02-04T11:06:57.428Z,1023.45
2018-02-04T11:08:24.639Z,1023.47
2018-02-04T11:09:51.952Z,1023.45
2018-02-04T11:11:18.977Z,1023.49
2018-02-04T11:12:46.108Z,1023.53
2018-02-04T11:14:13.352Z,1023.58
2018-02-04T11:15:40.570Z,1023.62
2018-02-04T11:17:07.613Z,1023.65
2018-02-04T11:18:34.575Z,1023.67
2018-02-04T11:20:01.691Z,1023.65
2018-02-04T11:21:28.670Z,1023.67
2018-02-04T11:22:56.010Z,1023.67
2018-02-04T11:24:23.277Z,1023.70
2018-02-04T11:25:50.311Z,1023.69
2018-02-04T11:27:17.538Z,1023.69
2018-02-04T11:28:44.666Z,1023.72
2018-02-04T11:30:11.834Z,1023.72
2018-02-04T11:31:39.008Z,1023.74
2018-02-04T11:33:06.082Z,1023.75
2018-02-04T11:34:32.831Z,1023.77
2018-02-04T11:36:00.085Z,1023.78
2018-02-04T11:37:27.061Z,1023.78
2018-02-04T11:38:53.754Z,1023.80
2018-02-04T11:40:20.812Z,1023.80
2018-02-04T11:41:48.079Z,1023.84
2018-02-04T11:43:14.914Z,1023.85
2018-02-04T11:44:42.125Z,1023.84
2018-02-04T11:46:09.158Z,1023.83
2018-02-04T11:47:36.353Z,1023.86
2018-02-04T11:49:03.291Z,1023.87
2018-02-04T11:50:30.420Z,1023.91
2018-02-04T11:51:57.655Z,1023.93
2018-02-04T11:53:24.435Z,1023.93
2018-02-04T11:54:51.552Z,1023.97
2018-02-04T11:56:18.479Z,1024.03
2018-02-04T11:57:45.584Z,1024.01
2018-02-04T11:59:12.234Z,1024.05
2018-02-04T12:00:39.430Z,1024.05
2018-02-04T12:02:06.252Z,1024.07
2018-02-04T12:03:33.223Z,1024.06
2018-02-04T12:05:00.448Z,1024.10
2018-02-04T12:06:27.045Z,1024.13
2018-02-04T12:07:54.233Z,1024.13
2018-02-04T12:09:21.416Z,1024.14
2018-02-04T12:10:48.675Z,1024.17
2018-02-04T12:12:15.875Z,1024.19
2018-02-04T12:13:42.954Z,1024.17
2018-02-04T12:15:09.821Z,1024.18
2018-02-04T12:16:36.821Z,1024.20
2018-02-04T12:18:03.908Z,1024.23
2018-02-04T12:19:31.040Z,1024.26
2018-02-04T12:20:58.338Z,1024.28
2018-02-04T12:22:25.397Z,1024.31
2018-02-04T12:23:52.500Z,1024.36
2018-02-04T12:25:19.690Z,1024.36
2018-02-04T12:26:46.918Z,1024.35
2018-02-04T12:28:13.989Z,1024.35
2018-02-04T12:29:41.234Z,1024.39
2018-02-04T12:31:08.288Z,1024.40
2018-02-04T12:32:35.499Z,1024.42
2018-02-04T12:34:02.815Z,1024.40
2018-02-04T12:35:29.817Z,1024.43
2018-02-04T12:36:56.869Z,1024.48
2018-02-04T12:38:24.148Z,1024.50
2018-02-04T12:39:51.188Z,1024.52
2018-02-04T12:41:18.448Z,1024.54
2018-02-04T12:42:45.683Z,1024.56
2018-02-04T12:44:12.686Z,1024.60
2018-02-04T12:45:39.744Z,1024.64
2018-02-04T12:47:06.860Z,1024.66
2018-02-04T12:48:33.928Z,1024.69
2018-02-04T12:50:01.030Z,1024.68
2018-02-04T12:51:28.272Z,1024.72
2018-02-04T12:52:55.416Z,1024.74
2018-02-04T12:54:22.352Z,1024.78
2018-02-04T12:55:49.700Z,1024.78
2018-02-04T12:57:16.616Z,1024.81
2018-02-04T12:58:43.911Z,1024.83
2018-02-04T13:00:10.977Z,1024.83
2018-02-04T13:01:38.218Z,1024.85
2018-02-04T13:03:05.302Z,1024.86
2018-02-04T13:04:32.369Z,1024.88
2018-02-04T13:05:59.740Z,1024.85
2018-02-04T13:07:26.933Z,1024.88
2018-02-04T13:08:56.942Z,1024.88
2018-02-04T13:10:21.065Z,1024.91
2018-02-04T13:11:48.173Z,1024.93
2018-02-04T13:13:15.388Z,1024.95
2018-02-04T13:14:42.425Z,1024.97
2018-02-04T13:16:09.662Z,1024.96
2018-02-04T13:17:36.528Z,1024.98
2018-02-04T13:19:03.731Z,1025.00
2018-02-04T13:20:30.677Z,1025.06
2018-02-04T13:21:57.956Z,1025.08
2018-02-04T13:23:25.103Z,1025.11
2018-02-04T13:24:52.248Z,1025.13
2018-02-04T13:26:19.429Z,1025.14
2018-02-04T13:27:46.684Z,1025.17
2018-02-04T13:29:13.647Z,1025.19
2018-02-04T13:30:40.780Z,1025.22
2018-02-04T13:32:07.809Z,1025.24
2018-02-04T13:33:34.791Z,1025.25
2018-02-04T13:35:01.859Z,1025.27
2018-02-04T13:36:29.119Z,1025.28
2018-02-04T13:37:56.163Z,1025.28
2018-02-04T13:39:23.309Z,1025.29
2018-02-04T13:40:50.446Z,1025.32
2018-02-04T13:42:17.702Z,1025.36
2018-02-04T13:43:44.839Z,1025.37
2018-02-04T13:45:12.191Z,1025.37
2018-02-04T13:46:39.284Z,1025.38
2018-02-04T13:48:06.349Z,1025.39
2018-02-04T13:49:33.182Z,1025.43
2018-02-04T13:51:00.493Z,1025.47
2018-02-04T13:52:27.805Z,1025.49
2018-02-04T13:53:54.825Z,1025.53
2018-02-04T13:55:21.854Z,1025.56
2018-02-04T13:56:49.000Z,1025.58
2018-02-04T13:58:16.125Z,1025.62
2018-02-04T13:59:43.365Z,1025.64
2018-02-04T14:01:10.376Z,1025.66
2018-02-04T14:02:37.418Z,1025.67
2018-02-04T14:04:04.489Z,1025.68
2018-02-04T14:05:31.729Z,1025.72
2018-02-04T14:06:59.006Z,1025.74
2018-02-04T14:08:26.082Z,1025.77
2018-02-04T14:09:53.258Z,1025.81
2018-02-04T14:11:20.572Z,1025.80
2018-02-04T14:12:47.409Z,1025.81
2018-02-04T14:14:14.678Z,1025.80
2018-02-04T14:15:41.665Z,1025.81
2018-02-04T14:17:08.637Z,1025.83
2018-02-04T14:18:35.689Z,1025.85
2018-02-04T14:20:02.826Z,1025.87
2018-02-04T14:21:30.058Z,1025.90
2018-02-04T14:22:57.125Z,1025.95
2018-02-04T14:24:24.171Z,1025.97
2018-02-04T14:25:51.525Z,1025.98
2018-02-04T14:27:18.687Z,1026.01
2018-02-04T14:28:45.477Z,1026.00
2018-02-04T14:30:12.630Z,1026.02
2018-02-04T14:31:39.574Z,1026.07
2018-02-04T14:33:06.717Z,1026.07
2018-02-04T14:34:33.612Z,1026.11
2018-02-04T14:36:00.722Z,1026.13
2018-02-04T14:37:27.780Z,1026.16
2018-02-04T14:38:54.996Z,1026.18
2018-02-04T14:40:21.665Z,1026.21
2018-02-04T14:41:48.895Z,1026.24
2018-02-04T14:43:15.971Z,1026.26
2018-02-04T14:44:42.944Z,1026.27
2018-02-04T14:46:09.794Z,1026.25
2018-02-04T14:47:36.694Z,1026.28
2018-02-04T14:49:03.461Z,1026.29
2018-02-04T14:50:30.709Z,1026.32
2018-02-04T14:51:57.877Z,1026.35
2018-02-04T14:53:25.204Z,1026.34
2018-02-04T14:54:52.596Z,1026.38
2018-02-04T14:56:19.501Z,1026.37
2018-02-04T14:57:46.310Z,1026.42
2018-02-04T14:59:13.285Z,1026.45
2018-02-04T15:00:40.318Z,1026.45
2018-02-04T15:02:07.353Z,1026.47
2018-02-04T15:03:34.255Z,1026.49
2018-02-04T15:05:01.110Z,1026.52
2018-02-04T15:06:27.861Z,1026.55
2018-02-04T15:07:54.967Z,1026.56
2018-02-04T15:09:21.977Z,1026.57
2018-02-04T15:10:48.743Z,1026.61
2018-02-04T15:12:15.943Z,1026.63
2018-02-04T15:13:43.016Z,1026.66
2018-02-04T15:15:09.990Z,1026.68
2018-02-04T15:16:37.071Z,1026.70
2018-02-04T15:18:04.020Z,1026.72
2018-02-04T15:19:31.332Z,1026.75
2018-02-04T15:20:57.894Z,1026.78
2018-02-04T15:22:24.995Z,1026.80
2018-02-04T15:23:52.245Z,1026.82
2018-02-04T15:25:19.381Z,1026.85
2018-02-04T15:26:46.562Z,1026.87
2018-02-04T15:28:13.748Z,1026.87
2018-02-04T15:29:40.929Z,1026.91
2018-02-04T15:31:08.024Z,1026.93
2018-02-04T15:32:35.133Z,1026.97
2018-02-04T15:34:02.125Z,1027.00
2018-02-04T15:35:29.143Z,1026.99
2018-02-04T15:36:56.206Z,1027.01
2018-02-04T15:38:23.507Z,1027.03
2018-02-04T15:39:50.589Z,1027.08
2018-02-04T15:41:17.898Z,1027.11
2018-02-04T15:42:44.801Z,1027.14
2018-02-04T15:44:11.911Z,1027.18
2018-02-04T15:45:38.961Z,1027.22
2018-02-04T15:47:06.333Z,1027.24
2018-02-04T15:48:33.160Z,1027.27
2018-02-04T15:50:00.454Z,1027.33
2018-02-04T15:51:27.599Z,1027.33
2018-02-04T15:52:54.684Z,1027.32
2018-02-04T15:54:21.862Z,1027.40
2018-02-04T15:55:48.655Z,1027.43
2018-02-04T15:57:15.693Z,1027.48
2018-02-04T15:58:42.940Z,1027.52
2018-02-04T16:00:10.128Z,1027.57
2018-02-04T16:01:36.827Z,1027.60
2018-02-04T16:03:03.902Z,1027.62
2018-02-04T16:04:31.255Z,1027.65
2018-02-04T16:05:58.427Z,1027.72
2018-02-04T16:07:25.567Z,1027.78
2018-02-04T16:08:52.482Z,1027.80
2018-02-04T16:10:19.784Z,1027.82
2018-02-04T16:11:46.664Z,1027.84
2018-02-04T16:13:13.701Z,1027.83
2018-02-04T16:14:41.014Z,1027.84
2018-02-04T16:16:08.138Z,1027.84
2018-02-04T16:17:35.209Z,1027.87
2018-02-04T16:19:02.172Z,1027.90
2018-02-04T16:20:29.200Z,1027.89
2018-02-04T16:21:56.033Z,1027.88
2018-02-04T16:23:23.215Z,1027.89
2018-02-04T16:24:50.502Z,1027.92
2018-02-04T16:26:17.640Z,1027.94
2018-02-04T16:27:44.909Z,1027.97
2018-02-04T16:29:11.984Z,1027.96
2018-02-04T16:30:39.054Z,1027.98
2018-02-04T16:32:06.039Z,1028.02
2018-02-04T16:33:33.390Z,1028.03
2018-02-04T16:35:00.487Z,1028.06
2018-02-04T16:36:27.799Z,1028.09
2018-02-04T16:37:55.023Z,1028.10
2018-02-04T16:39:21.937Z,1028.15
2018-02-04T16:40:48.833Z,1028.20
2018-02-04T16:42:15.906Z,1028.24
2018-02-04T16:43:43.106Z,1028.27
2018-02-04T16:45:10.009Z,1028.28
2018-02-04T16:46:37.095Z,1028.30
2018-02-04T16:48:03.977Z,1028.35
2018-02-04T16:49:32.044Z,1028.38
2018-02-04T16:50:58.303Z,1028.40
2018-02-04T16:52:25.560Z,1028.43
2018-02-04T16:53:52.693Z,1028.45
2018-02-04T16:55:19.909Z,1028.44
2018-02-04T16:56:46.741Z,1028.42
2018-02-04T16:58:13.631Z,1028.45
2018-02-04T16:59:40.669Z,1028.49
2018-02-04T17:01:07.695Z,1028.51
2018-02-04T17:02:34.374Z,1028.52
2018-02-04T17:04:01.620Z,1028.53
2018-02-04T17:05:28.735Z,1028.55
2018-02-04T17:06:56.031Z,1028.62
2018-02-04T17:08:23.035Z,1028.62
2018-02-04T17:09:50.309Z,1028.64
2018-02-04T17:11:17.386Z,1028.66
2018-02-04T17:12:44.528Z,1028.65
2018-02-04T17:14:11.435Z,1028.66
2018-02-04T17:15:38.393Z,1028.70
2018-02-04T17:17:05.507Z,1028.73
2018-02-04T17:18:32.604Z,1028.77
2018-02-04T17:19:59.625Z,1028.79
2018-02-04T17:21:27.019Z,1028.79
2018-02-04T17:22:53.959Z,1028.81
2018-02-04T17:24:20.810Z,1028.82
2018-02-04T17:25:47.837Z,1028.84
2018-02-04T17:27:14.973Z,1028.87
2018-02-04T17:28:41.937Z,1028.92
2018-02-04T17:30:09.065Z,1028.94
2018-02-04T17:31:36.397Z,1028.95
2018-02-04T17:33:03.397Z,1028.98
2018-02-04T17:34:30.356Z,1029.03